Time;durP1;ratioP1;P1;durP2;ratioP2;P2;SDS_P1;SDS_P2;PMS_P1;PMS_P2;Temp;Humidity;BMP_temperature;BMP_pressure;BME280_temperature;BME280_humidity;BME280_pressure;Samples;Min_cycle;Max_cycle;Signal;HPM_P1;HPM_P2
2022/06/08 00:01:40;;;;;;;11.02;3.78;;;12.40;77.50;;;;;;4120081;28;20037;-86
2022/06/08 00:03:45;;;;;;;8.05;3.78;;;12.40;77.40;;;;;;4101085;28;20137;-87
2022/06/08 00:05:46;;;;;;;11.75;3.47;;;12.40;77.40;;;;;;4123194;28;22704;-86
2022/06/08 00:07:47;;;;;;;10.82;4.18;;;12.50;77.40;;;;;;4117947;28;20058;-88
2022/06/08 00:09:51;;;;;;;14.77;4.30;;;12.50;77.40;;;;;;4124468;28;20018;-89
2022/06/08 00:11:51;;;;;;;12.95;4.75;;;12.40;77.10;;;;;;4132251;28;20041;-89
2022/06/08 00:14:13;;;;;;;13.20;4.70;;;12.40;77.20;;;;;;4143521;28;20038;-87
2022/06/08 00:16:22;;;;;;;10.80;4.47;;;12.40;77.10;;;;;;4135174;28;20049;-87
2022/06/08 00:18:44;;;;;;;12.85;4.18;;;12.40;77.00;;;;;;4133611;28;20046;-85
2022/06/08 00:20:59;;;;;;;11.52;4.80;;;12.40;76.90;;;;;;4116272;28;20035;-88
2022/06/08 00:23:21;;;;;;;9.98;4.35;;;12.40;76.90;;;;;;4118652;28;20128;-86
2022/06/08 00:25:42;;;;;;;11.63;3.90;;;12.40;76.80;;;;;;4114871;28;20118;-87
2022/06/08 00:28:03;;;;;;;10.68;3.65;;;12.40;76.60;;;;;;4116275;28;20065;-87
2022/06/08 00:30:06;;;;;;;11.15;3.90;;;12.40;76.50;;;;;;4116532;28;20482;-88
2022/06/08 00:32:27;;;;;;;7.90;3.80;;;12.40;76.50;;;;;;4118420;28;20122;-86
2022/06/08 00:34:47;;;;;;;9.25;3.70;;;12.40;76.40;;;;;;4133148;28;20132;-86
2022/06/08 00:37:08;;;;;;;9.57;3.20;;;12.40;76.30;;;;;;4114235;28;20034;-88
2022/06/08 00:39:28;;;;;;;6.45;3.08;;;12.40;76.10;;;;;;4118345;28;20045;-86
2022/06/08 00:41:56;;;;;;;10.85;3.47;;;12.40;76.00;;;;;;4119037;28;20027;-86
2022/06/08 00:44:20;;;;;;;9.82;3.50;;;12.40;75.80;;;;;;4115382;28;20030;-87
2022/06/08 00:46:41;;;;;;;8.02;3.03;;;12.40;75.70;;;;;;4117267;28;20058;-87
2022/06/08 00:49:23;;;;;;;12.90;3.33;;;12.40;75.60;;;;;;4130206;28;20061;-87
2022/06/08 00:51:45;;;;;;;7.15;2.63;;;12.40;75.60;;;;;;4097212;28;20045;-86
2022/06/08 00:54:12;;;;;;;22.55;3.28;;;12.40;75.40;;;;;;4107353;28;20035;-86
2022/06/08 00:56:18;;;;;;;9.95;3.15;;;12.40;75.30;;;;;;4116457;28;20030;-88
2022/06/08 00:58:26;;;;;;;17.27;3.88;;;12.40;75.30;;;;;;4117152;28;20038;-86
2022/06/08 01:00:30;;;;;;;10.20;3.38;;;12.40;75.20;;;;;;4127223;28;20030;-87
2022/06/08 01:02:31;;;;;;;10.20;3.30;;;12.40;75.10;;;;;;4130743;28;20084;-86
2022/06/08 01:04:32;;;;;;;7.65;3.10;;;12.30;75.00;;;;;;4114475;28;20034;-89
2022/06/08 01:06:33;;;;;;;10.45;3.22;;;12.40;75.10;;;;;;4116945;28;20057;-87
2022/06/08 01:08:40;;;;;;;9.85;3.03;;;12.40;75.10;;;;;;4118788;28;20062;-88
2022/06/08 01:10:48;;;;;;;11.88;3.38;;;12.40;75.10;;;;;;4120907;28;20326;-86
2022/06/08 01:12:49;;;;;;;12.23;3.47;;;12.40;75.00;;;;;;4126919;28;20034;-88
2022/06/08 01:14:52;;;;;;;6.88;3.03;;;12.40;75.10;;;;;;4118452;28;20038;-89
2022/06/08 01:17:04;;;;;;;11.05;3.22;;;12.30;75.00;;;;;;4114605;28;20042;-88
2022/06/08 01:19:07;;;;;;;14.80;3.30;;;12.40;75.00;;;;;;4121235;28;20022;-88
2022/06/08 01:21:28;;;;;;;10.40;3.97;;;12.30;74.90;;;;;;4117740;28;20034;-85
2022/06/08 01:24:00;;;;;;;8.02;3.80;;;12.40;75.00;;;;;;4116980;28;20038;-89
2022/06/08 01:26:24;;;;;;;12.68;3.38;;;12.30;74.80;;;;;;4126878;28;20490;-89
2022/06/08 01:28:58;;;;;;;14.75;3.92;;;12.40;74.90;;;;;;4110747;28;20031;-91
2022/06/08 01:31:36;;;;;;;17.58;3.95;;;12.30;74.90;;;;;;4117366;28;20037;-87
2022/06/08 01:34:02;;;;;;;10.50;4.35;;;12.40;74.90;;;;;;4116354;28;20085;-90
2022/06/08 01:36:46;;;;;;;13.27;4.47;;;12.30;74.90;;;;;;4117963;28;20672;-86
2022/06/08 01:39:24;;;;;;;9.27;3.93;;;12.30;74.80;;;;;;4117123;28;20088;-88
2022/06/08 01:42:08;;;;;;;12.10;3.63;;;12.30;74.90;;;;;;4115998;28;20343;-86
2022/06/08 01:47:47;;;;;;;10.07;3.97;;;12.30;74.80;;;;;;4113991;28;20117;-90
2022/06/08 01:50:34;;;;;;;10.60;3.67;;;12.30;74.70;;;;;;4116500;28;20034;-88
2022/06/08 01:53:13;;;;;;;10.73;4.13;;;12.30;74.70;;;;;;4120446;28;20035;-88
2022/06/08 01:55:36;;;;;;;14.68;4.72;;;12.30;74.70;;;;;;4120503;28;20097;-86
2022/06/08 01:58:03;;;;;;;10.80;3.88;;;12.30;74.70;;;;;;4121106;28;20039;-89
2022/06/08 02:00:11;;;;;;;11.45;4.80;;;12.30;74.60;;;;;;4129444;28;20060;-87
2022/06/08 02:02:14;;;;;;;8.30;4.28;;;12.30;74.60;;;;;;4113881;28;20113;-89
2022/06/08 02:04:25;;;;;;;;;;;12.30;74.60;;;;;;4121166;28;20025;-88
2022/06/08 02:06:40;;;;;;;12.75;4.50;;;12.30;74.80;;;;;;4113333;28;20374;-86
2022/06/08 02:09:04;;;;;;;14.52;4.40;;;12.30;74.50;;;;;;4111177;28;20041;-87
2022/06/08 02:11:17;;;;;;;;;;;12.20;74.50;;;;;;4115726;28;20022;-86
2022/06/08 02:13:31;;;;;;;15.88;4.38;;;12.20;74.60;;;;;;4121065;28;19963;-87
2022/06/08 02:15:39;;;;;;;15.10;4.30;;;12.20;74.30;;;;;;4120617;28;20049;-86
2022/06/08 02:18:09;;;;;;;10.75;3.47;;;12.20;74.40;;;;;;4116586;28;20743;-87
2022/06/08 02:20:25;;;;;;;11.85;3.85;;;12.30;74.60;;;;;;4082987;28;20100;-87
2022/06/08 02:22:41;;;;;;;14.55;3.35;;;12.20;74.50;;;;;;4086084;28;20074;-88
2022/06/08 02:25:06;;;;;;;10.68;3.05;;;12.20;74.50;;;;;;4091663;28;20686;-88
2022/06/08 02:27:22;;;;;;;9.05;3.58;;;12.10;74.40;;;;;;4089967;28;20038;-89
2022/06/08 02:29:29;;;;;;;11.85;3.13;;;12.20;74.40;;;;;;4085905;28;20042;-86
2022/06/08 02:31:37;;;;;;;11.02;3.28;;;12.10;74.40;;;;;;4075951;29;20087;-89
2022/06/08 02:36:06;;;;;;;7.35;2.70;;;12.10;74.20;;;;;;4088238;28;20115;-87
2022/06/08 02:38:13;;;;;;;15.10;2.92;;;12.10;74.20;;;;;;4090560;28;20116;-89
2022/06/08 02:40:19;;;;;;;10.15;3.03;;;12.10;74.20;;;;;;4088851;28;20035;-88
2022/06/08 02:42:26;;;;;;;10.95;2.78;;;12.10;74.10;;;;;;4085258;28;20118;-87
2022/06/08 02:44:30;;;;;;;11.75;3.15;;;12.10;74.10;;;;;;4087471;28;20047;-89
2022/06/08 02:46:42;;;;;;;12.57;2.63;;;12.10;74.20;;;;;;4083007;28;20024;-88
2022/06/08 02:48:43;;;;;;;12.35;2.97;;;12.10;74.20;;;;;;4084883;28;20807;-87
2022/06/08 02:50:53;;;;;;;9.10;2.13;;;12.10;74.20;;;;;;4087883;28;20118;-89
2022/06/08 02:53:17;;;;;;;9.85;2.50;;;12.10;74.20;;;;;;4093938;28;20029;-87
2022/06/08 02:55:35;;;;;;;12.15;2.88;;;12.10;74.20;;;;;;4094810;28;20083;-88
2022/06/08 02:57:44;;;;;;;19.40;2.85;;;12.10;74.20;;;;;;4105275;28;20039;-89
2022/06/08 03:00:14;;;;;;;13.48;2.70;;;12.10;74.20;;;;;;4123590;28;20031;-88
2022/06/08 03:02:28;;;;;;;10.35;3.15;;;12.10;74.20;;;;;;4124508;28;20077;-87
2022/06/08 03:04:36;;;;;;;;;;;12.10;74.30;;;;;;4128034;28;20032;-87
2022/06/08 03:06:52;;;;;;;10.88;2.55;;;12.10;74.50;;;;;;4137320;28;19918;-88
2022/06/08 03:09:02;;;;;;;10.57;3.13;;;12.10;74.10;;;;;;4123962;28;20024;-87
2022/06/08 03:11:26;;;;;;;15.13;3.25;;;12.10;74.30;;;;;;4122550;28;20406;-87
2022/06/08 03:13:33;;;;;;;12.23;3.08;;;12.10;74.30;;;;;;4122934;28;20502;-88
2022/06/08 03:15:35;;;;;;;11.75;3.35;;;12.10;74.40;;;;;;4120508;28;20059;-87
2022/06/08 03:17:37;;;;;;;18.92;3.72;;;12.10;74.40;;;;;;4124888;28;20144;-88
2022/06/08 03:19:59;;;;;;;11.95;3.72;;;12.00;74.50;;;;;;4121569;28;20034;-88
2022/06/08 03:22:05;;;;;;;13.73;3.07;;;12.00;74.60;;;;;;4120522;28;20033;-87
2022/06/08 03:24:06;;;;;;;13.98;3.85;;;12.10;74.60;;;;;;4125477;28;20498;-88
2022/06/08 03:26:14;;;;;;;18.05;4.07;;;12.00;74.60;;;;;;4114876;28;21040;-88
2022/06/08 03:28:16;;;;;;;9.15;3.28;;;12.00;74.70;;;;;;4116157;28;20030;-88
2022/06/08 03:30:20;;;;;;;13.27;3.60;;;12.10;74.80;;;;;;4107673;28;20030;-89
2022/06/08 03:32:21;;;;;;;14.68;3.30;;;12.10;74.90;;;;;;4116149;28;20058;-88
2022/06/08 03:34:31;;;;;;;16.77;3.90;;;12.10;74.90;;;;;;4109720;28;20394;-86
2022/06/08 03:37:07;;;;;;;15.68;3.63;;;12.10;75.00;;;;;;4110158;23;20129;-87
2022/06/08 03:39:15;;;;;;;13.32;3.58;;;12.10;75.20;;;;;;4117713;28;20609;-88
2022/06/08 03:41:36;;;;;;;12.80;3.30;;;12.10;75.10;;;;;;4128985;28;20148;-88
2022/06/08 03:44:05;;;;;;;17.10;3.50;;;12.10;75.10;;;;;;4135500;28;20092;-87
2022/06/08 03:46:27;;;;;;;15.68;4.90;;;12.20;75.10;;;;;;4124765;28;20050;-86
2022/06/08 03:48:46;;;;;;;18.13;4.13;;;12.10;75.20;;;;;;4127748;28;20026;-88
2022/06/08 03:50:54;;;;;;;16.95;3.92;;;12.10;75.10;;;;;;4111852;28;20025;-86
2022/06/08 03:53:20;;;;;;;12.20;3.60;;;12.20;75.20;;;;;;4114642;28;20100;-86
2022/06/08 03:55:47;;;;;;;8.90;3.58;;;12.10;75.10;;;;;;4102909;28;20038;-86
2022/06/08 03:58:06;;;;;;;16.23;3.58;;;12.10;75.20;;;;;;4143095;28;20033;-87
2022/06/08 04:00:30;;;;;;;13.05;3.25;;;12.20;75.10;;;;;;4107191;28;20042;-86
2022/06/08 04:02:55;;;;;;;12.23;3.97;;;12.20;75.10;;;;;;4117301;28;20042;-91
2022/06/08 04:05:16;;;;;;;8.43;3.92;;;12.20;75.10;;;;;;4117354;28;20026;-85
2022/06/08 04:07:37;;;;;;;7.32;3.63;;;12.20;75.00;;;;;;4113027;28;20562;-87
2022/06/08 04:10:04;;;;;;;10.18;3.47;;;12.20;75.00;;;;;;4120687;28;20034;-88
2022/06/08 04:12:25;;;;;;;6.90;3.45;;;12.10;74.90;;;;;;4118811;28;20030;-87
2022/06/08 04:14:37;;;;;;;12.35;4.07;;;12.20;74.90;;;;;;4111491;28;20077;-86
2022/06/08 04:16:51;;;;;;;15.35;3.65;;;12.20;75.00;;;;;;4115654;28;20483;-88
2022/06/08 04:18:53;;;;;;;7.85;3.42;;;12.20;75.10;;;;;;4115923;28;20391;-87
2022/06/08 04:20:55;;;;;;;11.60;3.05;;;12.20;75.10;;;;;;4114508;28;21425;-87
2022/06/08 04:23:06;;;;;;;15.15;3.85;;;12.10;75.00;;;;;;4116262;28;20117;-88
2022/06/08 04:25:07;;;;;;;10.27;3.67;;;12.20;75.30;;;;;;4115595;28;20026;-86
2022/06/08 04:27:10;;;;;;;12.70;3.83;;;12.20;75.30;;;;;;4118543;28;20336;-87
2022/06/08 04:29:14;;;;;;;11.15;3.25;;;12.20;75.30;;;;;;4111077;28;20022;-87
2022/06/08 04:31:16;;;;;;;12.05;3.50;;;12.20;75.30;;;;;;4109950;28;20399;-86
2022/06/08 04:33:29;;;;;;;15.07;3.67;;;12.30;76.20;;;;;;4144525;28;20029;-87
2022/06/08 04:35:51;;;;;;;8.52;3.45;;;12.20;75.40;;;;;;4127863;28;20042;-87
2022/06/08 04:38:06;;;;;;;12.63;3.33;;;12.30;75.50;;;;;;4115485;28;20041;-88
2022/06/08 04:40:30;;;;;;;10.73;3.55;;;12.20;75.50;;;;;;4112951;28;20121;-86
2022/06/08 04:42:40;;;;;;;11.60;3.45;;;12.30;75.50;;;;;;4112272;28;20038;-87
2022/06/08 04:45:03;;;;;;;7.82;3.17;;;12.30;75.50;;;;;;4110535;28;20030;-86
2022/06/08 04:47:30;;;;;;;6.13;3.03;;;12.30;75.50;;;;;;4108400;28;20118;-87
2022/06/08 04:49:50;;;;;;;8.70;3.08;;;12.30;75.50;;;;;;4114913;28;20030;-86
2022/06/08 04:52:11;;;;;;;11.98;3.35;;;12.30;75.50;;;;;;4111722;28;20117;-85
2022/06/08 04:54:32;;;;;;;9.27;2.47;;;12.30;75.50;;;;;;4114667;28;20749;-88
2022/06/08 04:56:52;;;;;;;13.45;3.70;;;12.30;75.50;;;;;;4117409;28;20045;-87
2022/06/08 04:59:13;;;;;;;10.77;3.28;;;12.30;75.50;;;;;;4123666;28;20144;-91
2022/06/08 05:01:34;;;;;;;6.90;3.38;;;12.40;75.60;;;;;;4115809;28;20503;-89
2022/06/08 05:03:34;;;;;;;10.85;2.92;;;12.40;75.70;;;;;;4122939;28;20121;-89
2022/06/08 05:05:38;;;;;;;9.32;3.08;;;12.40;75.60;;;;;;4114937;28;20053;-88
2022/06/08 05:07:39;;;;;;;7.25;3.00;;;12.40;75.60;;;;;;4111474;28;20034;-89
2022/06/08 05:09:40;;;;;;;10.30;3.35;;;12.50;75.70;;;;;;4117267;28;20089;-88
2022/06/08 05:11:41;;;;;;;9.20;3.17;;;12.50;75.70;;;;;;4116252;28;20034;-89
2022/06/08 05:13:41;;;;;;;8.55;2.85;;;12.50;75.70;;;;;;4145254;28;20030;-88
2022/06/08 05:15:44;;;;;;;10.43;2.97;;;12.50;75.70;;;;;;4113230;28;20426;-91
2022/06/08 05:17:45;;;;;;;11.60;2.80;;;12.50;75.60;;;;;;4098613;28;20031;-91
2022/06/08 05:19:46;;;;;;;7.28;3.20;;;12.50;75.60;;;;;;4113520;28;20129;-89
2022/06/08 05:21:46;;;;;;;5.47;2.40;;;12.50;75.70;;;;;;4115910;28;20045;-88
2022/06/08 05:23:48;;;;;;;6.20;2.60;;;12.50;75.70;;;;;;4129294;28;20041;-89
2022/06/08 05:25:49;;;;;;;6.45;2.70;;;12.60;75.80;;;;;;4113651;28;20030;-89
2022/06/08 05:27:50;;;;;;;7.53;2.75;;;12.60;75.80;;;;;;4128992;28;20563;-89
2022/06/08 05:29:51;;;;;;;11.73;3.20;;;12.60;75.70;;;;;;4124716;28;20034;-89
2022/06/08 05:31:51;;;;;;;6.68;2.50;;;12.70;75.70;;;;;;4128901;28;20119;-88
2022/06/08 05:33:56;;;;;;;12.52;2.72;;;12.60;75.60;;;;;;4127073;28;20026;-89
2022/06/08 05:35:57;;;;;;;11.48;2.70;;;12.70;75.60;;;;;;4131600;28;20034;-87
2022/06/08 05:37:58;;;;;;;11.52;3.08;;;12.80;75.50;;;;;;4131983;28;20086;-89
2022/06/08 05:39:59;;;;;;;8.05;2.90;;;12.70;75.40;;;;;;4135912;28;20053;-91
2022/06/08 05:42:00;;;;;;;9.13;3.30;;;12.80;75.30;;;;;;4102832;28;20030;-91
2022/06/08 05:44:01;;;;;;;10.13;3.00;;;12.80;75.30;;;;;;4116571;28;20041;-83
2022/06/08 05:46:02;;;;;;;9.38;2.50;;;12.80;75.20;;;;;;4115313;28;20021;-89
2022/06/08 05:48:04;;;;;;;6.60;2.90;;;12.80;75.10;;;;;;4120560;28;20034;-90
2022/06/08 05:50:05;;;;;;;8.05;2.80;;;12.90;75.10;;;;;;4124913;28;20146;-89
2022/06/08 05:52:07;;;;;;;7.13;2.78;;;12.90;75.00;;;;;;4125734;28;20093;-89
2022/06/08 05:54:08;;;;;;;8.20;3.28;;;12.90;75.00;;;;;;4116018;28;20030;-88
2022/06/08 05:56:08;;;;;;;8.65;2.90;;;12.90;74.90;;;;;;4124815;28;20133;-89
2022/06/08 05:58:09;;;;;;;5.38;2.50;;;13.00;74.80;;;;;;4148387;28;20029;-89
2022/06/08 06:00:14;;;;;;;8.98;3.00;;;13.00;74.70;;;;;;4117580;28;20033;-90
2022/06/08 06:02:35;;;;;;;14.85;2.90;;;13.00;74.70;;;;;;4131864;28;20054;-89
2022/06/08 06:04:36;;;;;;;7.22;2.42;;;13.00;74.70;;;;;;4123274;28;20054;-89
2022/06/08 06:06:38;;;;;;;8.15;2.97;;;13.10;74.80;;;;;;4119684;28;20484;-89
2022/06/08 06:09:00;;;;;;;10.95;2.88;;;13.20;74.90;;;;;;4131997;28;20094;-89
2022/06/08 06:11:20;;;;;;;5.75;2.42;;;13.20;74.70;;;;;;4116215;28;20118;-88
2022/06/08 06:13:21;;;;;;;8.70;2.67;;;13.30;74.60;;;;;;4120769;28;20027;-88
2022/06/08 06:15:42;;;;;;;8.45;2.85;;;13.30;74.60;;;;;;4119658;28;20042;-89
2022/06/08 06:18:04;;;;;;;7.80;2.60;;;13.40;74.50;;;;;;4118701;28;20046;-90
2022/06/08 06:20:25;;;;;;;6.72;2.33;;;13.50;74.50;;;;;;4118454;28;20093;-88
2022/06/08 06:22:46;;;;;;;4.78;1.83;;;13.60;74.60;;;;;;4123616;28;20049;-88
2022/06/08 06:25:08;;;;;;;6.13;2.17;;;13.60;74.40;;;;;;4118413;28;20052;-89
2022/06/08 06:27:29;;;;;;;10.13;2.30;;;13.70;74.20;;;;;;4118236;28;20031;-90
2022/06/08 06:29:51;;;;;;;15.25;2.60;;;13.80;73.70;;;;;;4116209;28;20053;-89
2022/06/08 06:32:19;;;;;;;5.80;2.30;;;13.80;73.20;;;;;;4117564;28;20037;-90
2022/06/08 06:34:40;;;;;;;5.55;1.80;;;13.90;73.00;;;;;;4115262;28;20030;-90
2022/06/08 06:36:41;;;;;;;6.32;2.60;;;14.00;72.80;;;;;;4111936;28;20038;-89
2022/06/08 06:38:42;;;;;;;4.78;2.05;;;14.00;72.60;;;;;;4143172;28;20041;-90
2022/06/08 06:40:42;;;;;;;7.47;2.28;;;14.10;72.60;;;;;;4119853;28;20088;-89
2022/06/08 06:42:45;;;;;;;10.10;2.33;;;14.10;72.30;;;;;;4118254;28;20041;-88
2022/06/08 06:44:46;;;;;;;5.43;1.98;;;14.20;72.10;;;;;;4127651;28;20036;-90
2022/06/08 06:46:46;;;;;;;5.88;2.72;;;14.10;71.80;;;;;;4108240;28;20070;-89
2022/06/08 06:48:47;;;;;;;6.65;2.17;;;14.20;71.40;;;;;;4113913;28;20494;-89
2022/06/08 06:50:48;;;;;;;6.20;1.77;;;14.30;71.30;;;;;;4095110;28;20034;-90
2022/06/08 06:52:49;;;;;;;7.25;2.90;;;14.30;71.20;;;;;;4116356;28;20030;-90
2022/06/08 06:54:49;;;;;;;8.45;2.40;;;14.30;71.10;;;;;;4133544;28;20030;-90
2022/06/08 06:56:50;;;;;;;6.70;1.90;;;14.30;71.90;;;;;;4118829;28;20027;-90
2022/06/08 06:58:51;;;;;;;8.73;2.22;;;14.40;71.20;;;;;;4102039;28;20036;-88
2022/06/08 07:00:52;;;;;;;10.20;2.10;;;14.40;71.20;;;;;;4124188;28;20113;-89
2022/06/08 07:02:55;;;;;;;7.30;1.90;;;14.40;70.90;;;;;;4113097;28;20070;-88
2022/06/08 07:04:55;;;;;;;8.10;2.28;;;14.50;70.80;;;;;;4115121;28;20474;-89
2022/06/08 07:07:16;;;;;;;7.85;2.22;;;14.50;70.70;;;;;;4119423;28;20022;-89
2022/06/08 07:09:37;;;;;;;7.53;2.42;;;14.60;70.20;;;;;;4118394;28;20035;-89
2022/06/08 07:11:41;;;;;;;7.13;2.00;;;14.60;70.30;;;;;;4118776;28;20042;-90
2022/06/08 07:14:04;;;;;;;9.57;2.38;;;14.60;70.00;;;;;;4117214;28;20035;-88
2022/06/08 07:16:06;;;;;;;10.57;2.50;;;14.60;69.80;;;;;;4100691;28;20058;-90
2022/06/08 07:18:20;;;;;;;7.07;2.28;;;14.70;69.40;;;;;;4106339;28;20024;-88
2022/06/08 07:20:32;;;;;;;7.55;2.00;;;14.70;69.40;;;;;;4117417;28;20031;-89
2022/06/08 07:22:39;;;;;;;9.05;2.30;;;14.70;69.20;;;;;;4122243;28;20109;-88
2022/06/08 07:25:00;;;;;;;7.95;2.13;;;14.70;69.20;;;;;;4120304;28;20482;-89
2022/06/08 07:27:22;;;;;;;7.55;2.05;;;14.80;69.30;;;;;;4122235;28;20092;-88
2022/06/08 07:29:43;;;;;;;11.52;2.25;;;14.80;69.30;;;;;;4117498;28;20042;-89
2022/06/08 07:32:04;;;;;;;8.05;2.10;;;14.80;69.20;;;;;;4123594;28;20030;-90
2022/06/08 07:34:25;;;;;;;11.60;2.40;;;14.90;69.30;;;;;;4117327;28;20027;-89
2022/06/08 07:36:46;;;;;;;7.90;2.50;;;14.90;69.50;;;;;;4122940;28;20025;-89
2022/06/08 07:39:07;;;;;;;8.38;2.45;;;14.90;69.50;;;;;;4124823;28;20117;-87
2022/06/08 07:41:28;;;;;;;6.88;2.63;;;15.00;69.70;;;;;;4118842;28;20046;-89
2022/06/08 07:43:48;;;;;;;7.10;2.45;;;15.10;69.70;;;;;;4121962;28;20561;-89
2022/06/08 07:46:10;;;;;;;10.85;2.80;;;15.10;69.80;;;;;;4124913;28;20026;-89
2022/06/08 07:51:10;;;;;;;8.45;2.47;;;15.30;70.80;;;;;;4114798;28;20015;-89
2022/06/08 07:53:31;;;;;;;7.75;3.30;;;15.50;70.70;;;;;;4127112;28;20070;-88
2022/06/08 07:55:51;;;;;;;7.45;2.47;;;15.60;70.70;;;;;;4127876;28;20034;-88
2022/06/08 07:58:12;;;;;;;9.10;3.33;;;15.80;71.60;;;;;;4123215;28;20034;-88
2022/06/08 08:00:14;;;;;;;12.65;3.03;;;16.00;70.60;;;;;;4134815;28;20141;-90
2022/06/08 08:02:16;;;;;;;8.15;3.10;;;16.10;70.00;;;;;;4121388;28;20536;-88
2022/06/08 08:04:16;;;;;;;5.72;2.88;;;16.20;69.30;;;;;;4118477;28;20023;-88
2022/06/08 08:06:17;;;;;;;8.90;2.90;;;16.30;68.70;;;;;;4123585;28;20109;-89
2022/06/08 08:08:19;;;;;;;8.48;3.42;;;16.40;67.60;;;;;;4112742;28;20026;-89
2022/06/08 08:10:23;;;;;;;10.25;3.17;;;16.50;67.30;;;;;;4137282;28;20019;-89
2022/06/08 08:12:27;;;;;;;9.90;3.47;;;16.60;66.90;;;;;;4135524;28;20033;-89
2022/06/08 08:14:28;;;;;;;10.25;3.58;;;16.60;66.30;;;;;;4123824;28;20491;-89
2022/06/08 08:16:29;;;;;;;8.63;3.65;;;16.60;65.80;;;;;;4125640;28;20471;-89
2022/06/08 08:18:31;;;;;;;9.85;3.30;;;16.70;65.00;;;;;;4115621;28;20030;-89
2022/06/08 08:20:32;;;;;;;7.80;3.33;;;16.70;64.90;;;;;;4116798;28;20027;-89
2022/06/08 08:22:53;;;;;;;9.80;3.53;;;16.70;64.50;;;;;;4128534;28;20121;-88
2022/06/08 08:24:53;;;;;;;9.52;3.65;;;16.70;64.40;;;;;;4111001;28;20078;-89
2022/06/08 08:26:56;;;;;;;13.30;3.78;;;16.70;64.00;;;;;;4117530;28;20032;-89
2022/06/08 08:28:57;;;;;;;12.48;4.03;;;16.70;64.00;;;;;;4149366;28;20057;-88
2022/06/08 08:30:57;;;;;;;8.80;3.45;;;16.70;63.70;;;;;;4125613;28;20276;-89
2022/06/08 08:32:59;;;;;;;6.22;3.47;;;16.70;64.40;;;;;;4126885;28;20022;-89
2022/06/08 08:35:01;;;;;;;13.60;4.15;;;16.70;63.70;;;;;;4103622;28;20078;-89
2022/06/08 08:37:01;;;;;;;8.40;3.80;;;16.70;63.30;;;;;;4120669;28;20054;-89
2022/06/08 08:39:03;;;;;;;9.65;3.58;;;16.60;63.10;;;;;;4150332;28;20559;-89
2022/06/08 08:42:20;;;;;;;9.35;3.53;;;16.60;63.30;;;;;;4119708;28;20058;-89
2022/06/08 08:43:31;;;;;;;7.40;3.42;;;16.60;63.40;;;;;;4115173;28;20045;-89
2022/06/08 08:45:41;;;;;;;8.02;3.55;;;16.50;63.50;;;;;;4129192;28;20495;-89
2022/06/08 08:48:00;;;;;;;7.53;3.30;;;16.50;63.70;;;;;;4106507;28;20037;-89
2022/06/08 08:50:16;;;;;;;11.57;3.92;;;16.50;63.70;;;;;;4144254;28;20037;-89
2022/06/08 08:52:48;;;;;;;7.90;4.05;;;16.50;63.90;;;;;;4124526;28;20030;-89
2022/06/08 08:54:57;;;;;;;7.15;3.85;;;16.50;63.90;;;;;;4155730;28;20025;-89
2022/06/08 08:57:25;;;;;;;12.68;5.03;;;16.50;64.30;;;;;;4118973;28;20072;-89
2022/06/08 08:59:30;;;;;;;11.10;4.20;;;16.40;64.00;;;;;;4133049;28;20129;-89
2022/06/08 09:01:35;;;;;;;11.00;4.07;;;16.40;64.20;;;;;;4119791;28;20091;-88
2022/06/08 09:03:49;;;;;;;10.10;3.47;;;16.40;64.20;;;;;;4124759;28;20046;-89
2022/06/08 09:05:53;;;;;;;8.45;4.00;;;16.40;65.30;;;;;;4122497;28;20034;-89
2022/06/08 09:07:56;;;;;;;13.18;4.10;;;16.40;64.60;;;;;;4120691;28;20030;-89
2022/06/08 09:09:57;;;;;;;8.68;4.30;;;16.50;64.80;;;;;;4123817;28;20776;-90
2022/06/08 09:11:58;;;;;;;8.40;3.80;;;16.50;64.70;;;;;;4121991;28;20034;-89
2022/06/08 09:14:14;;;;;;;10.75;3.85;;;16.50;64.40;;;;;;4129223;28;20477;-89
2022/06/08 09:16:27;;;;;;;7.30;3.72;;;16.40;64.00;;;;;;4122490;28;20026;-88
2022/06/08 09:18:33;;;;;;;14.15;4.10;;;16.50;64.10;;;;;;4120207;28;20030;-88
2022/06/08 09:20:37;;;;;;;12.50;4.45;;;16.50;64.20;;;;;;4117415;28;20023;-89
2022/06/08 09:22:39;;;;;;;11.18;4.30;;;16.50;64.40;;;;;;4125140;28;20023;-88
2022/06/08 09:25:03;;;;;;;7.20;3.60;;;16.50;64.30;;;;;;4121961;28;20053;-89
2022/06/08 09:27:36;;;;;;;9.20;4.35;;;16.50;64.30;;;;;;4102543;28;20027;-88
2022/06/08 09:30:18;;;;;;;10.55;4.20;;;16.50;64.50;;;;;;4116877;28;20030;-90
2022/06/08 09:32:53;;;;;;;7.82;3.95;;;16.50;64.70;;;;;;4121941;28;20446;-91
2022/06/08 09:35:02;;;;;;;13.65;4.05;;;16.60;65.00;;;;;;4122531;28;20069;-88
2022/06/08 09:37:24;;;;;;;9.90;4.68;;;16.60;64.80;;;;;;4125674;28;20046;-90
2022/06/08 09:39:45;;;;;;;15.90;5.57;;;16.70;64.20;;;;;;4127142;28;20796;-89
2022/06/08 09:42:32;;;;;;;15.20;4.53;;;16.60;63.10;;;;;;4123908;28;20062;-91
2022/06/08 09:45:37;;;;;;;9.70;4.63;;;16.70;63.40;;;;;;4126950;28;20049;-92
2022/06/08 09:51:26;;;;;;;8.77;4.18;;;16.80;64.60;;;;;;4125211;28;20035;-89
2022/06/08 09:54:11;;;;;;;10.50;5.20;;;17.00;64.00;;;;;;4137187;28;20038;-90
2022/06/08 09:56:59;;;;;;;11.52;5.28;;;17.10;64.00;;;;;;4122648;28;20062;-90
2022/06/08 09:59:44;;;;;;;7.65;4.07;;;17.30;63.70;;;;;;4123362;28;20045;-91
2022/06/08 10:02:05;;;;;;;10.32;4.97;;;17.50;64.30;;;;;;4119351;28;20023;-92
2022/06/08 10:04:15;;;;;;;12.75;4.72;;;17.70;64.50;;;;;;4100773;28;20100;-90
2022/06/08 10:06:23;;;;;;;8.63;4.72;;;17.90;63.90;;;;;;4126775;28;20031;-90
2022/06/08 10:08:48;;;;;;;13.43;5.07;;;18.00;62.70;;;;;;4140291;28;20522;-89
2022/06/08 10:11:34;;;;;;;8.48;4.97;;;18.20;59.60;;;;;;4135168;28;20029;-89
2022/06/08 10:13:43;;;;;;;10.07;4.15;;;18.30;60.20;;;;;;4125075;28;20026;-91
2022/06/08 10:15:48;;;;;;;10.88;5.40;;;18.50;59.80;;;;;;4115417;28;20089;-90
2022/06/08 10:18:29;;;;;;;7.85;4.50;;;18.50;59.20;;;;;;4151991;28;20432;-92
2022/06/08 10:20:38;;;;;;;9.63;4.20;;;18.70;58.50;;;;;;4071816;29;20341;-90
2022/06/08 10:22:44;;;;;;;10.27;4.93;;;18.70;59.40;;;;;;4095747;28;20039;-90
2022/06/08 10:25:04;;;;;;;8.20;4.22;;;18.80;59.20;;;;;;4092795;28;20035;-91
2022/06/08 10:27:38;;;;;;;10.23;4.53;;;18.90;58.80;;;;;;4088790;28;20031;-89
2022/06/08 10:30:03;;;;;;;8.60;4.15;;;19.00;58.30;;;;;;4029718;29;20037;-92
2022/06/08 10:32:19;;;;;;;9.00;4.55;;;19.00;58.60;;;;;;4047383;29;20505;-91
2022/06/08 10:34:33;;;;;;;10.95;5.15;;;19.10;58.20;;;;;;4008025;29;20048;-91
2022/06/08 10:37:17;;;;;;;6.68;4.10;;;19.10;57.00;;;;;;4045677;29;20040;-91
2022/06/08 10:39:39;;;;;;;11.32;4.53;;;19.20;57.20;;;;;;4050082;29;20653;-90
2022/06/08 10:45:23;;;;;;;10.75;4.63;;;19.30;57.40;;;;;;4015953;29;20064;-89
2022/06/08 10:47:57;;;;;;;7.38;4.45;;;19.30;57.60;;;;;;4016304;29;20073;-91
2022/06/08 10:50:37;;;;;;;10.98;5.53;;;19.40;57.30;;;;;;4002976;29;20042;-92
2022/06/08 10:56:00;;;;;;;9.15;5.15;;;19.40;56.90;;;;;;4016274;29;20088;-90
2022/06/08 10:58:13;;;;;;;9.52;5.82;;;19.50;56.80;;;;;;4046753;29;21072;-90
2022/06/08 11:00:19;;;;;;;9.70;5.10;;;19.40;55.60;;;;;;4041426;29;20047;-89
2022/06/08 11:02:30;;;;;;;7.65;5.05;;;19.40;55.30;;;;;;4048684;29;20060;-90
2022/06/08 11:04:33;;;;;;;8.77;4.90;;;19.40;55.00;;;;;;4013864;29;20029;-91
2022/06/08 11:06:54;;;;;;;;;;;19.40;55.60;;;;;;4053391;29;20071;-89
2022/06/08 11:08:56;;;;;;;6.85;4.55;;;19.40;55.80;;;;;;4059517;29;19946;-91
2022/06/08 11:11:00;;;;;;;12.98;4.95;;;19.40;56.40;;;;;;4080993;29;20662;-90
2022/06/08 11:13:30;;;;;;;8.95;5.18;;;19.40;56.30;;;;;;4070138;29;20051;-89
2022/06/08 11:15:58;;;;;;;7.97;4.70;;;19.40;55.60;;;;;;4089722;28;20049;-91
2022/06/08 11:18:03;;;;;;;7.82;3.72;;;19.40;55.60;;;;;;4122453;28;20039;-90
2022/06/08 11:20:15;;;;;;;4.88;3.90;;;19.40;55.80;;;;;;4121970;28;20094;-90
2022/06/08 11:22:25;;;;;;;5.03;3.38;;;19.50;55.40;;;;;;4124442;28;20030;-89
2022/06/08 11:24:37;;;;;;;7.60;4.38;;;19.50;55.90;;;;;;4108009;28;20054;-90
2022/06/08 11:26:37;;;;;;;10.60;4.57;;;19.50;55.20;;;;;;4131548;28;20772;-88
2022/06/08 11:28:43;;;;;;;10.23;4.25;;;19.60;55.20;;;;;;4128116;28;20034;-89
2022/06/08 11:30:48;;;;;;;8.45;4.38;;;19.60;55.20;;;;;;4130059;28;20096;-90
2022/06/08 11:32:52;;;;;;;7.40;3.70;;;19.70;55.20;;;;;;4128277;28;20121;-90
2022/06/08 11:35:11;;;;;;;6.93;3.88;;;19.70;55.20;;;;;;4122393;28;20026;-90
2022/06/08 11:37:34;;;;;;;11.05;4.70;;;19.80;55.10;;;;;;4129042;28;20098;-90
2022/06/08 11:40:03;;;;;;;8.32;4.20;;;19.80;55.00;;;;;;4124480;28;20531;-88
2022/06/08 11:42:25;;;;;;;8.65;3.85;;;19.90;55.10;;;;;;4124754;28;20034;-90
2022/06/08 11:44:33;;;;;;;10.18;4.03;;;20.00;55.00;;;;;;4122682;28;20030;-90
2022/06/08 11:46:38;;;;;;;10.32;4.07;;;20.10;55.40;;;;;;4118748;28;20031;-92
2022/06/08 11:48:49;;;;;;;9.52;4.55;;;20.20;55.30;;;;;;4117041;28;20037;-92
2022/06/08 11:51:02;;;;;;;6.47;3.55;;;20.30;54.50;;;;;;4129586;28;20034;-90